createdAt,value
2022-11-17T00:01:28.056Z,2.70
2022-11-17T00:03:56.444Z,4.10
2022-11-17T00:06:24.781Z,1.90
2022-11-17T00:08:53.605Z,4.40
2022-11-17T00:11:22.088Z,2.40
2022-11-17T00:14:09.307Z,2.30
2022-11-17T00:16:37.695Z,3.20
2022-11-17T00:19:24.823Z,2.30
2022-11-17T00:21:53.189Z,2.50
2022-11-17T00:24:23.829Z,4.10
2022-11-17T00:27:04.469Z,2.10
2022-11-17T00:29:34.469Z,3.60
2022-11-17T00:32:23.701Z,2.30
2022-11-17T00:34:52.142Z,2.00
2022-11-17T00:37:20.521Z,2.50
2022-11-17T00:39:48.860Z,3.30
2022-11-17T00:42:17.241Z,2.60
2022-11-17T00:44:45.681Z,2.20
2022-11-17T00:47:14.066Z,2.30
2022-11-17T00:49:42.529Z,3.20
2022-11-17T00:52:11.208Z,1.90
2022-11-17T00:54:39.618Z,1.90
2022-11-17T00:57:08.301Z,2.80
2022-11-17T00:59:36.703Z,3.40
2022-11-17T01:02:05.110Z,2.30
2022-11-17T01:04:33.568Z,1.80
2022-11-17T01:07:02.014Z,3.20
2022-11-17T01:09:30.449Z,4.10
2022-11-17T01:11:58.868Z,1.90
2022-11-17T01:14:30.198Z,2.50
2022-11-17T01:16:58.762Z,2.40
2022-11-17T01:19:27.152Z,2.00
2022-11-17T01:21:55.523Z,4.00
2022-11-17T01:24:23.859Z,2.10
2022-11-17T01:26:52.330Z,2.80
2022-11-17T01:29:20.734Z,2.30
2022-11-17T01:31:52.649Z,2.90
2022-11-17T01:34:21.118Z,3.80
2022-11-17T01:37:08.162Z,2.60
2022-11-17T01:39:36.589Z,2.40
2022-11-17T01:42:13.003Z,2.20
2022-11-17T01:45:02.678Z,2.00
2022-11-17T01:47:36.989Z,3.10
2022-11-17T01:50:13.034Z,1.80
2022-11-17T01:52:42.361Z,2.10
2022-11-17T01:55:11.702Z,1.90
2022-11-17T01:57:46.095Z,2.20
2022-11-17T02:00:15.232Z,3.40
2022-11-17T02:02:44.675Z,2.60
2022-11-17T02:05:41.119Z,2.30
2022-11-17T02:08:11.480Z,2.40
2022-11-17T02:10:40.441Z,2.20
2022-11-17T02:13:09.789Z,2.60
2022-11-17T02:15:38.267Z,2.40
2022-11-17T02:18:07.004Z,2.00
2022-11-17T02:20:50.885Z,2.00
2022-11-17T02:23:38.273Z,1.90
2022-11-17T02:26:37.462Z,2.10
2022-11-17T02:29:25.149Z,1.90
2022-11-17T02:32:01.219Z,2.00
2022-11-17T02:34:54.562Z,3.20
2022-11-17T02:37:44.480Z,2.40
2022-11-17T02:40:43.080Z,1.50
2022-11-17T02:43:37.086Z,2.00
2022-11-17T02:46:17.836Z,2.50
2022-11-17T02:48:53.284Z,1.90
2022-11-17T02:51:24.327Z,1.60
2022-11-17T02:53:55.565Z,3.00
2022-11-17T02:56:23.981Z,4.00
2022-11-17T02:58:59.949Z,2.90
2022-11-17T03:01:37.104Z,1.90
2022-11-17T03:04:30.992Z,2.60
2022-11-17T03:07:03.146Z,1.90
2022-11-17T03:09:53.707Z,1.90
2022-11-17T03:12:34.206Z,1.80
2022-11-17T03:15:24.230Z,2.10
2022-11-17T03:18:20.790Z,3.70
2022-11-17T03:21:04.174Z,1.80
2022-11-17T03:23:54.910Z,2.20
2022-11-17T03:26:37.853Z,2.00
2022-11-17T03:29:11.721Z,2.40
2022-11-17T03:31:43.697Z,2.40
2022-11-17T03:34:18.508Z,2.70
2022-11-17T03:36:52.256Z,2.30
2022-11-17T03:39:25.459Z,2.10
2022-11-17T03:41:59.413Z,2.20
2022-11-17T03:44:30.296Z,2.90
2022-11-17T03:47:02.988Z,2.10
2022-11-17T03:49:34.175Z,2.00
2022-11-17T03:52:04.121Z,3.10
2022-11-17T03:54:33.882Z,2.00
2022-11-17T03:57:12.906Z,2.00
2022-11-17T03:59:55.559Z,1.90
2022-11-17T04:02:26.153Z,1.80
2022-11-17T04:05:06.436Z,2.60
2022-11-17T04:07:46.219Z,1.70
2022-11-17T04:10:22.813Z,3.10
2022-11-17T04:13:10.156Z,1.50
2022-11-17T04:15:57.049Z,3.10
2022-11-17T04:18:26.725Z,1.50
2022-11-17T04:20:56.994Z,1.70
2022-11-17T04:23:25.995Z,2.40
2022-11-17T04:26:14.346Z,2.10
2022-11-17T04:28:47.201Z,1.50
2022-11-17T04:31:21.607Z,5.10
2022-11-17T04:34:01.334Z,1.60
2022-11-17T04:36:37.078Z,1.30
2022-11-17T04:39:05.546Z,1.70
2022-11-17T04:41:53.711Z,1.70
2022-11-17T04:44:27.809Z,2.80
2022-11-17T04:46:57.305Z,2.10
2022-11-17T04:49:26.436Z,3.80
2022-11-17T04:51:54.910Z,2.20
2022-11-17T04:54:27.721Z,2.00
2022-11-17T04:56:56.701Z,2.10
2022-11-17T04:59:25.200Z,1.80
2022-11-17T05:01:53.719Z,2.00
2022-11-17T05:04:48.230Z,1.90
2022-11-17T05:07:16.599Z,1.90
2022-11-17T05:09:45.033Z,2.30
2022-11-17T05:12:32.175Z,1.80
2022-11-17T05:15:00.637Z,2.40
2022-11-17T05:17:28.967Z,2.20
2022-11-17T05:19:57.658Z,4.70
2022-11-17T05:22:44.544Z,1.90
2022-11-17T05:25:13.071Z,2.00
2022-11-17T05:27:41.521Z,4.10
2022-11-17T05:30:10.829Z,2.00
2022-11-17T05:32:39.311Z,1.70
2022-11-17T05:35:08.169Z,4.30
2022-11-17T05:37:36.559Z,2.80
2022-11-17T05:40:05.471Z,2.20
2022-11-17T05:42:35.521Z,1.90
2022-11-17T05:45:04.169Z,2.10
2022-11-17T05:47:32.604Z,2.20
2022-11-17T05:50:01.016Z,2.10
2022-11-17T05:52:29.330Z,1.90
2022-11-17T05:54:57.670Z,2.00
2022-11-17T05:57:31.156Z,1.90
2022-11-17T06:00:04.715Z,1.70
2022-11-17T06:02:47.260Z,1.60
2022-11-17T06:05:20.189Z,2.40
2022-11-17T06:07:49.681Z,2.00
2022-11-17T06:10:21.028Z,2.90
2022-11-17T06:12:49.481Z,1.90
2022-11-17T06:15:18.297Z,1.70
2022-11-17T06:17:55.916Z,2.00
2022-11-17T06:20:34.793Z,1.70
2022-11-17T06:23:06.553Z,1.60
2022-11-17T06:25:37.318Z,1.60
2022-11-17T06:28:11.002Z,3.10
2022-11-17T06:30:40.487Z,1.80
2022-11-17T06:33:14.526Z,2.00
2022-11-17T06:35:45.607Z,4.40
2022-11-17T06:38:14.159Z,2.90
2022-11-17T06:40:42.509Z,2.80
2022-11-17T06:43:10.978Z,2.70
2022-11-17T06:45:43.567Z,2.90
2022-11-17T06:48:14.836Z,1.70
2022-11-17T06:50:44.052Z,3.80
2022-11-17T06:53:12.817Z,4.00
2022-11-17T06:55:41.851Z,2.20
2022-11-17T06:58:14.162Z,2.60
2022-11-17T07:00:42.616Z,3.20
2022-11-17T07:03:11.160Z,2.80
2022-11-17T07:05:40.404Z,2.40
2022-11-17T07:08:09.267Z,3.40
2022-11-17T07:10:38.551Z,4.10
2022-11-17T07:13:07.125Z,2.90
2022-11-17T07:15:35.480Z,2.70
2022-11-17T07:18:04.110Z,4.90
2022-11-17T07:20:32.457Z,2.80
2022-11-17T07:23:00.876Z,3.80
2022-11-17T07:25:29.251Z,2.90
2022-11-17T07:27:59.523Z,4.10
2022-11-17T07:30:28.267Z,3.40
2022-11-17T07:33:00.198Z,3.00
2022-11-17T07:35:28.892Z,2.50
2022-11-17T07:37:59.359Z,3.70
2022-11-17T07:40:29.005Z,4.30
2022-11-17T07:42:57.453Z,3.00
2022-11-17T07:45:31.376Z,6.50
2022-11-17T07:48:02.292Z,6.90
2022-11-17T07:50:31.536Z,7.30
2022-11-17T07:53:00.076Z,4.00
2022-11-17T07:55:28.619Z,5.00
2022-11-17T07:57:58.972Z,4.80
2022-11-17T08:00:29.741Z,5.80
2022-11-17T08:03:03.693Z,4.00
2022-11-17T08:05:41.793Z,5.10
2022-11-17T08:08:13.506Z,4.10
2022-11-17T08:10:43.228Z,7.60
2022-11-17T08:13:12.920Z,3.60
2022-11-17T08:15:42.484Z,5.10
2022-11-17T08:18:11.034Z,6.20
2022-11-17T08:20:39.482Z,5.20
2022-11-17T08:23:07.974Z,7.80
2022-11-17T08:25:36.427Z,5.70
2022-11-17T08:28:04.936Z,5.80
2022-11-17T08:30:36.364Z,7.30
2022-11-17T08:33:04.798Z,7.30
2022-11-17T08:35:37.451Z,7.90
2022-11-17T08:38:06.866Z,10.40
2022-11-17T08:40:35.125Z,7.30
2022-11-17T08:43:03.920Z,7.70
2022-11-17T08:45:32.438Z,6.00
2022-11-17T08:48:00.823Z,6.80
2022-11-17T08:50:29.109Z,6.90
2022-11-17T08:52:57.534Z,9.20
2022-11-17T08:55:26.480Z,9.00
2022-11-17T08:57:55.054Z,6.20
2022-11-17T09:00:25.269Z,9.00
2022-11-17T09:02:53.571Z,6.40
2022-11-17T09:05:21.933Z,11.10
2022-11-17T09:07:50.610Z,14.20
2022-11-17T09:10:19.059Z,9.20
2022-11-17T09:12:47.380Z,8.90
2022-11-17T09:15:15.738Z,9.50
2022-11-17T09:17:47.802Z,7.00
2022-11-17T09:20:17.693Z,9.50
2022-11-17T09:22:46.604Z,8.70
2022-11-17T09:25:15.175Z,6.80
2022-11-17T09:27:43.647Z,6.20
2022-11-17T09:30:12.302Z,6.20
2022-11-17T09:32:40.746Z,6.50
2022-11-17T09:35:09.512Z,5.80
2022-11-17T09:37:37.956Z,6.50
2022-11-17T09:40:07.466Z,5.90
2022-11-17T09:42:40.700Z,4.80
2022-11-17T09:45:18.152Z,7.00
2022-11-17T09:48:38.787Z,5.30
2022-11-17T09:51:02.505Z,5.00
2022-11-17T09:53:54.432Z,5.80
2022-11-17T09:56:23.027Z,11.00
2022-11-17T09:58:57.041Z,17.70
2022-11-17T10:01:28.671Z,13.10
2022-11-17T10:04:00.115Z,7.90
2022-11-17T10:06:34.860Z,4.90
2022-11-17T10:09:24.112Z,5.70
2022-11-17T10:11:59.672Z,5.60
2022-11-17T10:14:29.169Z,6.30
2022-11-17T10:16:59.033Z,5.60
2022-11-17T10:19:30.531Z,4.90
2022-11-17T10:22:02.089Z,5.50
2022-11-17T10:24:50.513Z,7.20
2022-11-17T10:27:34.341Z,8.70
2022-11-17T10:30:21.315Z,5.90
2022-11-17T10:32:58.391Z,21.40
2022-11-17T10:35:30.786Z,58.30
2022-11-17T10:38:02.038Z,22.60
2022-11-17T10:40:33.001Z,22.40
2022-11-17T10:43:13.429Z,19.40
2022-11-17T10:45:56.639Z,9.40
2022-11-17T10:48:29.617Z,9.10
2022-11-17T10:51:02.068Z,9.20
2022-11-17T10:53:41.353Z,9.30
2022-11-17T10:56:21.645Z,6.50
2022-11-17T10:59:14.652Z,7.20
2022-11-17T11:01:45.923Z,13.30
2022-11-17T11:04:35.475Z,7.40
2022-11-17T11:07:09.800Z,8.20
2022-11-17T11:10:10.570Z,7.70
2022-11-17T11:12:45.138Z,6.20
2022-11-17T11:15:35.846Z,9.90
2022-11-17T11:18:16.184Z,6.50
2022-11-17T11:20:57.001Z,6.00
2022-11-17T11:23:43.966Z,6.10
2022-11-17T11:26:16.556Z,10.70
2022-11-17T11:29:05.681Z,8.30
2022-11-17T11:31:40.031Z,9.10
2022-11-17T11:34:15.393Z,8.70
2022-11-17T11:36:54.039Z,9.90
2022-11-17T11:39:25.489Z,13.40
2022-11-17T11:42:10.737Z,12.20
2022-11-17T11:45:13.673Z,14.90
2022-11-17T11:48:05.882Z,14.10
2022-11-17T11:50:41.829Z,8.20
2022-11-17T11:53:24.456Z,9.60
2022-11-17T11:56:12.741Z,9.70
2022-11-17T11:58:48.240Z,9.10
2022-11-17T12:01:19.916Z,7.60
2022-11-17T12:04:13.068Z,9.20
2022-11-17T12:06:55.695Z,17.20
2022-11-17T12:09:48.224Z,17.30
2022-11-17T12:12:29.561Z,16.00
2022-11-17T12:15:18.953Z,22.80
2022-11-17T12:17:53.372Z,18.10
2022-11-17T12:20:33.604Z,10.70
2022-11-17T12:23:22.202Z,15.70
2022-11-17T12:25:57.369Z,18.30
2022-11-17T12:31:43.431Z,15.40
2022-11-17T12:34:30.870Z,18.20
2022-11-17T12:37:22.159Z,10.60
2022-11-17T12:40:02.478Z,11.30
2022-11-17T12:42:32.916Z,10.70
2022-11-17T12:45:12.352Z,104.00
2022-11-17T12:48:04.981Z,10.80
2022-11-17T12:50:49.078Z,13.00
2022-11-17T12:53:29.129Z,15.90
2022-11-17T12:56:19.420Z,14.00
2022-11-17T12:59:00.103Z,10.40
2022-11-17T13:01:40.807Z,14.00
2022-11-17T13:04:12.270Z,13.80
2022-11-17T13:07:04.452Z,15.80
2022-11-17T13:09:35.797Z,17.20
2022-11-17T13:12:06.829Z,18.70
2022-11-17T13:14:37.125Z,19.30
2022-11-17T13:17:11.558Z,13.40
2022-11-17T13:19:41.718Z,14.50
2022-11-17T13:22:15.419Z,9.70
2022-11-17T13:24:49.299Z,13.40
2022-11-17T13:27:25.782Z,11.20
2022-11-17T13:30:13.997Z,24.50
2022-11-17T13:32:42.935Z,14.90
2022-11-17T13:35:26.274Z,48.50
2022-11-17T13:38:15.959Z,12.70
2022-11-17T13:40:45.322Z,17.80
2022-11-17T13:43:29.395Z,24.20
2022-11-17T13:45:58.170Z,12.80
2022-11-17T13:48:38.538Z,18.00
2022-11-17T13:51:27.859Z,18.90
2022-11-17T13:54:16.370Z,21.00
2022-11-17T13:56:48.083Z,25.50
2022-11-17T13:59:34.508Z,14.50
2022-11-17T14:02:19.440Z,26.00
2022-11-17T14:05:18.646Z,18.50
2022-11-17T14:07:47.684Z,19.40
2022-11-17T14:10:22.017Z,22.90
2022-11-17T14:12:53.616Z,19.10
2022-11-17T14:15:24.784Z,14.10
2022-11-17T14:17:55.314Z,16.40
2022-11-17T14:20:23.728Z,14.10
2022-11-17T14:23:22.265Z,16.40
2022-11-17T14:25:51.472Z,20.30
2022-11-17T14:28:23.367Z,15.10
2022-11-17T14:30:55.415Z,17.50
2022-11-17T14:33:24.524Z,14.60
2022-11-17T14:35:56.939Z,15.40
2022-11-17T14:38:25.700Z,15.80
2022-11-17T14:40:54.177Z,13.20
2022-11-17T14:43:23.350Z,14.00
2022-11-17T14:45:51.702Z,16.80
2022-11-17T14:48:20.437Z,14.20
2022-11-17T14:50:48.988Z,13.90
2022-11-17T14:53:17.319Z,17.80
2022-11-17T14:55:45.662Z,14.40
2022-11-17T14:58:13.940Z,22.80
2022-11-17T15:00:42.293Z,21.90
2022-11-17T15:03:10.735Z,23.30
2022-11-17T15:05:45.542Z,24.40
2022-11-17T15:08:14.556Z,19.80
2022-11-17T15:10:44.475Z,23.60
2022-11-17T15:13:13.022Z,26.80
2022-11-17T15:15:41.457Z,34.00
2022-11-17T15:18:11.859Z,58.40
2022-11-17T15:20:40.241Z,103.40
2022-11-17T15:23:08.647Z,33.60
2022-11-17T15:25:38.919Z,27.30
2022-11-17T15:28:07.254Z,27.30
2022-11-17T15:30:35.680Z,29.80
2022-11-17T15:33:04.148Z,29.80
2022-11-17T15:35:32.481Z,26.90
2022-11-17T15:38:00.817Z,21.30
2022-11-17T15:40:29.386Z,21.20
2022-11-17T15:42:57.827Z,20.00
2022-11-17T15:45:26.203Z,22.20
2022-11-17T15:47:54.501Z,20.90
2022-11-17T15:50:22.821Z,22.90
2022-11-17T15:53:05.294Z,21.60
2022-11-17T15:55:35.205Z,17.90
2022-11-17T15:58:04.221Z,17.50
2022-11-17T16:00:33.913Z,17.20
2022-11-17T16:03:02.366Z,22.90
2022-11-17T16:05:30.679Z,26.10
2022-11-17T16:07:58.979Z,19.50
2022-11-17T16:10:27.518Z,30.50
2022-11-17T16:12:56.468Z,29.90
2022-11-17T16:15:24.972Z,27.40
2022-11-17T16:17:53.320Z,18.60
2022-11-17T16:20:21.771Z,18.90
2022-11-17T16:22:50.245Z,21.90
2022-11-17T16:25:18.645Z,17.50
2022-11-17T16:27:47.048Z,23.50
2022-11-17T16:30:16.039Z,21.00
2022-11-17T16:32:44.469Z,19.30
2022-11-17T16:35:12.914Z,26.20
2022-11-17T16:37:41.298Z,20.00
2022-11-17T16:40:10.835Z,22.70
2022-11-17T16:42:39.238Z,27.20
2022-11-17T16:45:08.136Z,24.70
2022-11-17T16:47:36.591Z,28.80
2022-11-17T16:50:12.713Z,22.70
2022-11-17T16:52:41.001Z,26.10
2022-11-17T16:55:09.663Z,31.00
2022-11-17T16:57:37.980Z,28.50
2022-11-17T17:00:07.048Z,34.10
2022-11-17T17:02:35.521Z,32.60
2022-11-17T17:05:04.028Z,39.40
2022-11-17T17:07:32.435Z,40.80
2022-11-17T17:10:00.826Z,34.30
2022-11-17T17:12:29.218Z,40.90
2022-11-17T17:14:57.777Z,40.50
2022-11-17T17:17:26.190Z,37.30
2022-11-17T17:19:54.804Z,36.40
2022-11-17T17:22:23.161Z,34.40
2022-11-17T17:24:52.730Z,35.40
2022-11-17T17:27:21.029Z,38.60
2022-11-17T17:29:49.516Z,39.00
2022-11-17T17:32:18.022Z,46.40
2022-11-17T17:34:46.306Z,46.30
2022-11-17T17:37:14.575Z,48.60
2022-11-17T17:39:42.897Z,50.60
2022-11-17T17:42:14.827Z,54.60
2022-11-17T17:44:43.273Z,65.40
2022-11-17T17:47:11.683Z,57.90
2022-11-17T17:49:39.956Z,45.30
2022-11-17T17:52:13.535Z,50.10
2022-11-17T17:54:42.327Z,48.60
2022-11-17T17:57:13.188Z,218.60
2022-11-17T17:59:41.576Z,60.90
2022-11-17T18:02:10.208Z,59.60
2022-11-17T18:04:38.617Z,272.30
2022-11-17T18:07:14.181Z,41.00
2022-11-17T18:09:46.051Z,38.50
2022-11-17T18:12:14.443Z,36.70
2022-11-17T18:14:43.766Z,36.50
2022-11-17T18:17:12.060Z,31.10
2022-11-17T18:19:43.581Z,34.30
2022-11-17T18:22:11.999Z,33.70
2022-11-17T18:24:40.619Z,34.00
2022-11-17T18:27:11.878Z,35.50
2022-11-17T18:29:50.015Z,37.80
2022-11-17T18:32:20.063Z,36.00
2022-11-17T18:34:49.702Z,36.40
2022-11-17T18:37:19.950Z,42.60
2022-11-17T18:39:48.747Z,39.30
2022-11-17T18:42:23.274Z,40.40
2022-11-17T18:44:51.808Z,45.00
2022-11-17T18:47:23.041Z,46.10
2022-11-17T18:49:51.412Z,56.30
2022-11-17T18:52:25.897Z,53.60
2022-11-17T18:54:57.125Z,56.80
2022-11-17T18:57:28.291Z,59.60
2022-11-17T18:59:56.720Z,52.40
2022-11-17T19:02:25.319Z,44.30
2022-11-17T19:04:53.876Z,38.00
2022-11-17T19:07:25.024Z,38.70
2022-11-17T19:09:53.784Z,39.90
2022-11-17T19:12:25.375Z,35.50
2022-11-17T19:14:53.794Z,35.60
2022-11-17T19:17:22.140Z,39.00
2022-11-17T19:19:51.654Z,37.80
2022-11-17T19:22:23.353Z,37.10
2022-11-17T19:24:51.869Z,36.50
2022-11-17T19:27:20.211Z,36.20
2022-11-17T19:29:50.211Z,39.10
2022-11-17T19:32:18.622Z,37.90
2022-11-17T19:34:53.375Z,42.70
2022-11-17T19:37:22.490Z,46.40
2022-11-17T19:39:53.928Z,51.50
2022-11-17T19:42:26.688Z,42.00
2022-11-17T19:44:55.379Z,48.10
2022-11-17T19:47:24.261Z,44.00
2022-11-17T19:49:53.072Z,200.50
2022-11-17T19:52:22.859Z,227.20
2022-11-17T19:54:53.759Z,66.70
2022-11-17T19:57:23.306Z,55.40
2022-11-17T19:59:52.080Z,56.80
2022-11-17T20:02:23.293Z,64.90
2022-11-17T20:04:51.987Z,61.00
2022-11-17T20:07:20.457Z,56.50
2022-11-17T20:09:51.189Z,76.10
2022-11-17T20:12:19.624Z,54.20
2022-11-17T20:14:48.547Z,44.60
2022-11-17T20:17:21.043Z,74.60
2022-11-17T20:19:50.829Z,60.20
2022-11-17T20:22:23.152Z,50.10
2022-11-17T20:24:52.187Z,41.80
2022-11-17T20:27:26.352Z,37.80
2022-11-17T20:29:57.741Z,40.60
2022-11-17T20:32:26.163Z,38.60
2022-11-17T20:34:57.961Z,42.00
2022-11-17T20:37:26.452Z,44.30
2022-11-17T20:39:54.833Z,45.80
2022-11-17T20:42:26.289Z,49.00
2022-11-17T20:44:56.501Z,47.30
2022-11-17T20:47:27.559Z,43.00
2022-11-17T20:49:57.047Z,50.60
2022-11-17T20:52:25.440Z,47.20
2022-11-17T20:54:53.780Z,73.30
2022-11-17T20:57:24.211Z,99.60
2022-11-17T20:59:52.579Z,66.50
2022-11-17T21:02:21.076Z,51.30
2022-11-17T21:04:49.555Z,53.30
2022-11-17T21:07:17.912Z,48.30
2022-11-17T21:09:49.042Z,44.50
2022-11-17T21:12:20.249Z,44.10
2022-11-17T21:14:49.088Z,43.00
2022-11-17T21:17:36.350Z,44.40
2022-11-17T21:20:05.632Z,43.50
2022-11-17T21:22:35.936Z,47.10
2022-11-17T21:25:04.537Z,46.80
2022-11-17T21:27:32.992Z,48.20
2022-11-17T21:30:01.365Z,50.80
2022-11-17T21:32:29.884Z,45.40
2022-11-17T21:34:59.484Z,52.60
2022-11-17T21:37:28.167Z,45.40
2022-11-17T21:39:56.644Z,52.40
2022-11-17T21:42:25.415Z,46.90
2022-11-17T21:44:53.857Z,46.60
2022-11-17T21:47:22.197Z,45.60
2022-11-17T21:49:50.474Z,49.20
2022-11-17T21:52:18.942Z,44.70
2022-11-17T21:54:47.292Z,42.40
2022-11-17T21:57:15.638Z,43.00
2022-11-17T21:59:43.967Z,44.30
2022-11-17T22:02:12.395Z,44.30
2022-11-17T22:04:40.708Z,41.20
2022-11-17T22:07:09.254Z,38.20
2022-11-17T22:09:37.547Z,42.60
2022-11-17T22:12:06.128Z,38.20
2022-11-17T22:14:34.548Z,41.00
2022-11-17T22:17:03.006Z,36.70
2022-11-17T22:19:31.356Z,37.30
2022-11-17T22:21:59.685Z,36.80
2022-11-17T22:24:28.092Z,40.40
2022-11-17T22:26:56.426Z,37.30
2022-11-17T22:29:25.054Z,37.60
2022-11-17T22:31:53.345Z,40.00
2022-11-17T22:34:21.644Z,40.20
2022-11-17T22:36:49.939Z,39.70
2022-11-17T22:39:18.597Z,39.00
2022-11-17T22:41:47.219Z,39.10
2022-11-17T22:44:16.554Z,41.60
2022-11-17T22:46:45.768Z,37.80
2022-11-17T22:49:14.683Z,38.60
2022-11-17T22:52:01.952Z,40.10
2022-11-17T22:54:31.317Z,40.00
2022-11-17T22:56:59.816Z,42.20
2022-11-17T22:59:29.714Z,35.80
2022-11-17T23:01:58.317Z,39.00
2022-11-17T23:04:26.780Z,40.70
2022-11-17T23:06:55.212Z,39.80
2022-11-17T23:09:23.540Z,38.20
2022-11-17T23:11:51.969Z,41.50
2022-11-17T23:14:20.357Z,42.20
2022-11-17T23:16:48.722Z,39.20
2022-11-17T23:19:17.569Z,38.30
2022-11-17T23:21:46.142Z,39.10
2022-11-17T23:24:14.905Z,36.90
2022-11-17T23:26:43.451Z,38.30
2022-11-17T23:29:11.852Z,37.40
2022-11-17T23:31:40.272Z,34.00
2022-11-17T23:34:12.150Z,41.50
2022-11-17T23:36:40.450Z,34.40
2022-11-17T23:39:09.047Z,33.60
2022-11-17T23:41:37.479Z,32.60
2022-11-17T23:44:06.157Z,35.70
2022-11-17T23:46:34.740Z,35.20
2022-11-17T23:49:03.436Z,35.40
2022-11-17T23:51:31.794Z,33.20
2022-11-17T23:54:01.623Z,33.10
2022-11-17T23:56:34.315Z,32.30
2022-11-17T23:59:03.625Z,31.50
